createdAt,value
2019-03-20T00:02:15.693Z,5.13
2019-03-20T00:04:49.807Z,4.33
2019-03-20T00:07:13.743Z,4.83
2019-03-20T00:09:41.809Z,5.07
2019-03-20T00:12:09.811Z,3.43
2019-03-20T00:14:37.833Z,3.90
2019-03-20T00:17:05.956Z,3.23
2019-03-20T00:19:34.298Z,3.93
2019-03-20T00:22:02.884Z,3.23
2019-03-20T00:24:30.812Z,3.97
2019-03-20T00:26:59.026Z,3.07
2019-03-20T00:29:27.066Z,3.60
2019-03-20T00:31:55.105Z,3.53
2019-03-20T00:34:23.138Z,3.10
2019-03-20T00:36:51.182Z,3.87
2019-03-20T00:39:19.213Z,3.50
2019-03-20T00:41:47.240Z,4.77
2019-03-20T00:44:15.257Z,5.80
2019-03-20T00:46:45.182Z,5.80
2019-03-20T00:49:13.138Z,4.70
2019-03-20T00:51:41.096Z,5.87
2019-03-20T00:54:09.149Z,9.20
2019-03-20T00:56:37.195Z,10.00
2019-03-20T00:59:06.424Z,7.37
2019-03-20T01:01:34.397Z,5.20
2019-03-20T01:04:02.739Z,4.83
2019-03-20T01:06:30.688Z,3.33
2019-03-20T01:08:58.698Z,3.27
2019-03-20T01:11:26.720Z,2.70
2019-03-20T01:13:55.828Z,2.77
2019-03-20T01:16:23.913Z,2.70
2019-03-20T01:18:51.926Z,2.87
2019-03-20T01:21:19.931Z,2.33
2019-03-20T01:23:47.927Z,4.27
2019-03-20T01:26:15.937Z,5.30
2019-03-20T01:28:43.940Z,13.10
2019-03-20T01:31:12.214Z,13.97
2019-03-20T01:33:40.448Z,15.37
2019-03-20T01:36:08.460Z,13.93
2019-03-20T01:38:36.429Z,9.37
2019-03-20T01:41:04.419Z,6.20
2019-03-20T01:43:32.571Z,4.70
2019-03-20T01:46:00.644Z,4.73
2019-03-20T01:48:28.596Z,5.03
2019-03-20T01:51:11.186Z,6.13
2019-03-20T01:53:39.245Z,4.07
2019-03-20T01:56:07.284Z,3.00
2019-03-20T01:58:35.317Z,3.23
2019-03-20T02:01:03.392Z,3.60
2019-03-20T02:03:31.534Z,2.93
2019-03-20T02:05:59.559Z,2.90
2019-03-20T02:08:27.644Z,3.33
2019-03-20T02:10:56.501Z,2.73
2019-03-20T02:13:24.570Z,3.07
2019-03-20T02:15:52.615Z,3.07
2019-03-20T02:18:20.672Z,2.90
2019-03-20T02:20:48.685Z,2.50
2019-03-20T02:23:16.720Z,2.70
2019-03-20T02:25:44.771Z,2.70
2019-03-20T02:28:12.842Z,2.97
2019-03-20T02:30:41.252Z,2.47
2019-03-20T02:33:09.662Z,2.67
2019-03-20T02:35:50.793Z,2.53
2019-03-20T02:38:07.572Z,2.30
2019-03-20T02:40:35.734Z,2.47
2019-03-20T02:43:04.126Z,2.50
2019-03-20T02:45:32.163Z,2.73
2019-03-20T02:48:00.199Z,3.30
2019-03-20T02:50:28.190Z,3.57
2019-03-20T02:52:56.265Z,3.10
2019-03-20T02:55:24.316Z,3.13
2019-03-20T02:57:52.392Z,3.00
2019-03-20T03:00:20.567Z,3.17
2019-03-20T03:02:48.678Z,2.43
2019-03-20T03:05:16.934Z,3.53
2019-03-20T03:07:45.065Z,3.57
2019-03-20T03:10:13.603Z,2.70
2019-03-20T03:12:41.671Z,2.97
2019-03-20T03:15:09.757Z,2.90
2019-03-20T03:17:38.033Z,3.17
2019-03-20T03:20:06.245Z,3.07
2019-03-20T03:22:34.361Z,2.60
2019-03-20T03:25:02.389Z,3.07
2019-03-20T03:27:30.491Z,2.57
2019-03-20T03:29:58.557Z,3.00
2019-03-20T03:32:26.667Z,2.80
2019-03-20T03:34:54.716Z,3.23
2019-03-20T03:37:22.954Z,3.80
2019-03-20T03:39:51.338Z,3.53
2019-03-20T03:42:19.365Z,3.67
2019-03-20T03:44:47.446Z,4.10
2019-03-20T03:47:15.491Z,4.17
2019-03-20T03:49:44.891Z,4.97
2019-03-20T03:52:12.962Z,4.53
2019-03-20T03:54:41.039Z,5.23
2019-03-20T03:57:23.895Z,5.07
2019-03-20T03:59:52.514Z,6.23
2019-03-20T04:02:20.564Z,6.07
2019-03-20T04:04:48.760Z,6.70
2019-03-20T04:07:16.821Z,8.67
2019-03-20T04:09:44.894Z,7.20
2019-03-20T04:12:12.936Z,8.43
2019-03-20T04:14:41.140Z,9.27
2019-03-20T04:17:20.529Z,9.93
2019-03-20T04:19:48.657Z,10.47
2019-03-20T04:22:16.654Z,10.27
2019-03-20T04:24:44.720Z,10.93
2019-03-20T04:27:12.791Z,10.93
2019-03-20T04:29:40.837Z,11.17
2019-03-20T04:32:08.884Z,12.13
2019-03-20T04:34:36.952Z,10.80
2019-03-20T04:37:05.007Z,10.53
2019-03-20T04:39:33.086Z,11.37
2019-03-20T04:42:01.355Z,11.67
2019-03-20T04:44:29.433Z,12.10
2019-03-20T04:46:57.471Z,11.43
2019-03-20T04:49:25.936Z,11.07
2019-03-20T04:51:54.060Z,13.73
2019-03-20T04:54:22.150Z,12.13
2019-03-20T04:56:50.274Z,12.37
2019-03-20T04:59:18.419Z,12.37
2019-03-20T05:01:46.488Z,12.03
2019-03-20T05:04:14.553Z,13.47
2019-03-20T05:06:42.624Z,13.70
2019-03-20T05:09:10.683Z,14.50
2019-03-20T05:11:38.809Z,14.63
2019-03-20T05:14:07.191Z,14.60
2019-03-20T05:16:35.262Z,14.03
2019-03-20T05:19:03.326Z,14.90
2019-03-20T05:21:31.391Z,17.87
2019-03-20T05:23:59.496Z,17.03
2019-03-20T05:26:27.560Z,17.43
2019-03-20T05:28:55.655Z,18.13
2019-03-20T05:31:23.692Z,17.57
2019-03-20T05:33:52.210Z,18.53
2019-03-20T05:36:20.663Z,19.43
2019-03-20T05:38:48.805Z,18.33
2019-03-20T05:41:17.081Z,18.73
2019-03-20T05:43:45.153Z,19.50
2019-03-20T05:46:13.201Z,19.53
2019-03-20T05:48:41.305Z,21.23
2019-03-20T05:51:09.400Z,19.53
2019-03-20T05:53:37.441Z,19.97
2019-03-20T05:56:05.532Z,21.23
2019-03-20T05:58:33.589Z,21.03
2019-03-20T06:01:01.648Z,22.30
2019-03-20T06:03:29.705Z,21.57
2019-03-20T06:05:57.832Z,20.40
2019-03-20T06:08:25.932Z,21.43
2019-03-20T06:10:54.043Z,21.33
2019-03-20T06:13:23.943Z,20.90
2019-03-20T06:15:53.320Z,19.73
2019-03-20T06:18:24.247Z,21.33
2019-03-20T06:20:58.628Z,22.07
2019-03-20T06:23:29.470Z,21.63
2019-03-20T06:26:01.765Z,20.97
2019-03-20T06:28:35.223Z,19.87
2019-03-20T06:31:05.978Z,20.97
2019-03-20T06:33:44.423Z,20.73
2019-03-20T06:39:26.498Z,21.83
2019-03-20T06:41:58.479Z,21.27
2019-03-20T06:44:26.983Z,21.93
2019-03-20T06:50:36.102Z,20.10
2019-03-20T06:53:06.060Z,22.13
2019-03-20T06:55:45.998Z,21.57
2019-03-20T06:58:33.222Z,22.13
2019-03-20T07:01:26.291Z,21.97
2019-03-20T07:04:11.805Z,22.07
2019-03-20T07:06:57.613Z,22.07
2019-03-20T07:09:36.305Z,21.37
2019-03-20T07:12:04.343Z,21.93
2019-03-20T07:15:01.447Z,22.27
2019-03-20T07:17:45.985Z,21.70
2019-03-20T07:20:25.822Z,21.67
2019-03-20T07:22:57.964Z,24.93
2019-03-20T07:25:26.498Z,22.33
2019-03-20T07:28:02.933Z,24.30
2019-03-20T07:30:32.204Z,23.87
2019-03-20T07:33:06.621Z,24.20
2019-03-20T07:35:39.693Z,24.00
2019-03-20T07:38:09.655Z,24.67
2019-03-20T07:40:37.906Z,23.83
2019-03-20T07:43:39.751Z,25.27
2019-03-20T07:46:15.810Z,24.23
2019-03-20T07:49:10.489Z,24.23
2019-03-20T07:52:06.247Z,24.97
2019-03-20T07:54:41.083Z,23.93
2019-03-20T07:57:12.426Z,25.40
2019-03-20T07:59:43.604Z,24.77
2019-03-20T08:02:17.634Z,24.27
2019-03-20T08:04:46.196Z,25.60
2019-03-20T08:07:17.472Z,25.00
2019-03-20T08:09:48.692Z,25.90
2019-03-20T08:12:16.972Z,25.30
2019-03-20T08:14:54.294Z,24.00
2019-03-20T08:17:31.065Z,24.00
2019-03-20T08:20:15.472Z,23.73
2019-03-20T08:22:47.714Z,24.90
2019-03-20T08:25:39.523Z,24.03
2019-03-20T08:31:17.670Z,23.67
2019-03-20T08:36:42.638Z,23.73
2019-03-20T08:39:17.139Z,23.20
2019-03-20T08:41:50.941Z,22.43
2019-03-20T08:44:21.344Z,23.87
2019-03-20T08:47:00.006Z,22.43
2019-03-20T08:49:32.514Z,23.63
2019-03-20T08:52:02.923Z,23.80
2019-03-20T08:54:35.323Z,21.90
2019-03-20T08:57:03.390Z,22.83
2019-03-20T08:59:31.741Z,23.63
2019-03-20T09:01:59.817Z,23.07
2019-03-20T09:04:30.346Z,21.93
2019-03-20T09:06:58.508Z,22.43
2019-03-20T09:09:26.640Z,21.47
2019-03-20T09:11:56.560Z,22.53
2019-03-20T09:14:24.649Z,22.67
2019-03-20T09:16:52.825Z,22.03
2019-03-20T09:19:20.969Z,20.83
2019-03-20T09:21:49.074Z,22.27
2019-03-20T09:24:17.257Z,21.63
2019-03-20T09:26:45.391Z,21.10
2019-03-20T09:29:18.483Z,22.00
2019-03-20T09:31:43.435Z,21.37
2019-03-20T09:34:11.544Z,21.10
2019-03-20T09:36:51.192Z,22.03
2019-03-20T09:39:25.362Z,20.97
2019-03-20T09:42:40.760Z,19.80
2019-03-20T09:44:47.864Z,20.67
2019-03-20T09:47:28.906Z,20.07
2019-03-20T09:50:00.059Z,20.03
2019-03-20T09:52:38.383Z,20.63
2019-03-20T09:55:06.604Z,18.90
2019-03-20T09:57:34.643Z,19.63
2019-03-20T10:00:02.759Z,20.67
2019-03-20T10:02:30.952Z,19.23
2019-03-20T10:04:59.258Z,19.10
2019-03-20T10:07:27.370Z,20.73
2019-03-20T10:09:55.445Z,19.73
2019-03-20T10:12:23.555Z,19.13
2019-03-20T10:14:51.847Z,18.40
2019-03-20T10:17:19.930Z,20.37
2019-03-20T10:19:48.040Z,19.73
2019-03-20T10:22:16.148Z,20.57
2019-03-20T10:24:44.275Z,20.73
2019-03-20T10:27:12.377Z,21.03
2019-03-20T10:29:40.547Z,21.37
2019-03-20T10:32:08.617Z,22.43
2019-03-20T10:34:39.671Z,23.77
2019-03-20T10:37:06.440Z,22.73
2019-03-20T10:39:34.528Z,23.23
2019-03-20T10:42:02.621Z,21.93
2019-03-20T10:44:30.691Z,22.80
2019-03-20T10:46:58.944Z,22.17
2019-03-20T10:49:27.093Z,21.37
2019-03-20T10:51:55.151Z,22.17
2019-03-20T10:54:24.636Z,22.47
2019-03-20T10:56:52.845Z,22.93
2019-03-20T10:59:20.965Z,23.73
2019-03-20T11:01:49.306Z,23.17
2019-03-20T11:04:17.374Z,25.23
2019-03-20T11:06:45.588Z,23.90
2019-03-20T11:09:18.107Z,24.67
2019-03-20T11:11:43.472Z,23.43
2019-03-20T11:14:11.598Z,25.27
2019-03-20T11:16:39.804Z,24.13
2019-03-20T11:19:07.833Z,25.00
2019-03-20T11:21:35.932Z,24.40
2019-03-20T11:24:04.017Z,24.67
2019-03-20T11:26:32.173Z,24.93
2019-03-20T11:29:00.263Z,24.40
2019-03-20T11:31:28.370Z,24.50
2019-03-20T11:33:56.490Z,24.97
2019-03-20T11:36:24.578Z,24.70
2019-03-20T11:38:52.664Z,24.50
2019-03-20T11:41:20.737Z,25.10
2019-03-20T11:43:48.835Z,25.87
2019-03-20T11:46:16.925Z,25.53
2019-03-20T11:48:45.109Z,26.20
2019-03-20T11:51:13.269Z,24.57
2019-03-20T11:53:41.436Z,25.30
2019-03-20T11:56:09.547Z,26.20
2019-03-20T11:58:38.011Z,25.50
2019-03-20T12:01:06.067Z,25.77
2019-03-20T12:03:34.255Z,26.27
2019-03-20T12:06:02.320Z,25.13
2019-03-20T12:08:30.390Z,25.47
2019-03-20T12:10:58.702Z,25.17
2019-03-20T12:13:26.939Z,23.90
2019-03-20T12:15:55.035Z,25.23
2019-03-20T12:18:23.103Z,26.67
2019-03-20T12:20:51.195Z,24.10
2019-03-20T12:23:19.332Z,25.17
2019-03-20T12:25:47.365Z,24.63
2019-03-20T12:28:15.457Z,26.20
2019-03-20T12:30:43.641Z,27.83
2019-03-20T12:33:11.705Z,25.47
2019-03-20T12:35:39.784Z,28.10
2019-03-20T12:38:14.217Z,27.53
2019-03-20T12:40:38.040Z,26.63
2019-03-20T12:43:06.535Z,26.93
2019-03-20T12:45:34.723Z,27.77
2019-03-20T12:48:02.772Z,26.87
2019-03-20T12:50:31.027Z,26.60
2019-03-20T12:53:01.510Z,27.53
2019-03-20T12:55:30.927Z,28.73
2019-03-20T12:57:58.529Z,29.10
2019-03-20T13:00:27.562Z,28.00
2019-03-20T13:02:55.767Z,27.83
2019-03-20T13:05:23.810Z,27.77
2019-03-20T13:07:51.899Z,27.77
2019-03-20T13:10:19.963Z,27.23
2019-03-20T13:12:48.222Z,27.53
2019-03-20T13:15:20.019Z,28.60
2019-03-20T13:17:48.182Z,29.67
2019-03-20T13:20:16.243Z,27.63
2019-03-20T13:22:44.690Z,28.53
2019-03-20T13:25:13.648Z,28.43
2019-03-20T13:27:41.760Z,30.07
2019-03-20T13:30:19.826Z,29.20
2019-03-20T13:32:41.628Z,30.27
2019-03-20T13:35:09.745Z,29.27
2019-03-20T13:37:37.808Z,30.40
2019-03-20T13:40:13.852Z,31.17
2019-03-20T13:43:09.367Z,31.73
2019-03-20T13:45:37.441Z,32.00
2019-03-20T13:51:15.354Z,31.53
2019-03-20T13:53:43.422Z,31.73
2019-03-20T13:56:11.487Z,31.60
2019-03-20T13:58:39.605Z,31.63
2019-03-20T14:01:07.787Z,32.50
2019-03-20T14:03:35.939Z,32.30
2019-03-20T14:06:04.095Z,33.70
2019-03-20T14:08:32.203Z,32.83
2019-03-20T14:11:00.291Z,33.60
2019-03-20T14:13:28.472Z,33.07
2019-03-20T14:15:56.580Z,35.43
2019-03-20T14:18:24.735Z,34.10
2019-03-20T14:20:52.984Z,35.83
2019-03-20T14:23:42.015Z,35.70
2019-03-20T14:26:36.800Z,33.47
2019-03-20T14:29:04.895Z,35.80
2019-03-20T14:31:38.221Z,34.50
2019-03-20T14:34:08.160Z,34.47
2019-03-20T14:36:57.690Z,34.90
2019-03-20T14:39:37.980Z,35.67
2019-03-20T14:42:06.992Z,34.60
2019-03-20T14:44:58.016Z,34.97
2019-03-20T14:47:28.221Z,34.60
2019-03-20T14:49:56.380Z,35.20
2019-03-20T14:52:24.427Z,34.80
2019-03-20T14:54:54.081Z,35.87
2019-03-20T15:00:32.094Z,36.83
2019-03-20T15:03:00.305Z,36.97
2019-03-20T15:05:34.670Z,35.80
2019-03-20T15:08:05.404Z,36.67
2019-03-20T15:10:45.648Z,35.97
2019-03-20T15:13:17.397Z,35.00
2019-03-20T15:15:52.195Z,34.07
2019-03-20T15:18:26.611Z,35.63
2019-03-20T15:21:04.580Z,34.87
2019-03-20T15:23:38.769Z,36.53
2019-03-20T15:26:07.482Z,36.57
2019-03-20T15:28:35.703Z,34.87
2019-03-20T15:31:05.611Z,35.40
2019-03-20T15:33:35.464Z,35.43
2019-03-20T15:36:04.245Z,35.87
2019-03-20T15:38:34.015Z,36.10
2019-03-20T15:41:04.504Z,36.17
2019-03-20T15:43:36.312Z,37.00
2019-03-20T15:46:04.829Z,35.60
2019-03-20T15:48:34.414Z,36.63
2019-03-20T15:51:03.051Z,36.40
2019-03-20T15:53:33.958Z,36.43
2019-03-20T15:56:02.231Z,35.43
2019-03-20T15:58:30.599Z,35.43
2019-03-20T16:00:58.657Z,36.60
2019-03-20T16:03:26.769Z,35.10
2019-03-20T16:05:54.921Z,35.13
2019-03-20T16:11:32.904Z,33.40
2019-03-20T16:14:00.968Z,36.03
2019-03-20T16:16:31.340Z,36.00
2019-03-20T16:19:13.419Z,35.40
2019-03-20T16:21:42.278Z,35.37
2019-03-20T16:24:10.436Z,36.40
2019-03-20T16:26:38.523Z,35.70
2019-03-20T16:32:21.037Z,33.80
2019-03-20T16:34:52.062Z,35.23
2019-03-20T16:37:20.243Z,36.77
2019-03-20T16:39:48.328Z,34.20
2019-03-20T16:42:18.443Z,36.07
2019-03-20T16:44:46.865Z,37.07
2019-03-20T16:47:15.112Z,35.97
2019-03-20T16:49:45.114Z,36.73
2019-03-20T16:52:15.570Z,37.83
2019-03-20T16:54:43.682Z,36.73
2019-03-20T16:57:15.100Z,36.40
2019-03-20T16:59:43.164Z,37.67
2019-03-20T17:02:11.983Z,37.87
2019-03-20T17:04:40.089Z,38.80
2019-03-20T17:10:20.988Z,37.70
2019-03-20T17:12:49.832Z,39.43
2019-03-20T17:15:31.908Z,39.97
2019-03-20T17:18:02.275Z,40.30
2019-03-20T17:20:30.433Z,40.87
2019-03-20T17:22:58.764Z,39.93
2019-03-20T17:25:26.928Z,41.37
2019-03-20T17:27:55.083Z,39.93
2019-03-20T17:30:24.467Z,38.87
2019-03-20T17:32:52.639Z,39.70
2019-03-20T17:35:20.799Z,42.00
2019-03-20T17:37:48.894Z,41.57
2019-03-20T17:40:17.477Z,42.27
2019-03-20T17:42:45.637Z,43.87
2019-03-20T17:45:14.173Z,41.77
2019-03-20T17:47:42.431Z,41.23
2019-03-20T17:50:13.751Z,40.93
2019-03-20T17:53:08.692Z,40.97
2019-03-20T17:55:37.145Z,41.40
2019-03-20T17:58:05.497Z,42.87
2019-03-20T18:00:47.387Z,42.33
2019-03-20T18:03:16.091Z,44.00
2019-03-20T18:08:42.898Z,45.90
2019-03-20T18:11:11.134Z,41.17
2019-03-20T18:13:39.708Z,45.03
2019-03-20T18:16:29.047Z,42.63
2019-03-20T18:18:57.264Z,41.33
2019-03-20T18:21:52.420Z,43.70
2019-03-20T18:24:21.235Z,43.17
2019-03-20T18:26:51.548Z,41.73
2019-03-20T18:29:24.465Z,44.73
2019-03-20T18:38:02.488Z,42.47
2019-03-20T18:48:45.350Z,45.00
2019-03-20T18:51:18.905Z,45.33
2019-03-20T18:53:47.816Z,44.83
2019-03-20T18:56:16.089Z,44.90
2019-03-20T18:58:44.480Z,44.77
2019-03-20T19:01:13.246Z,43.60
2019-03-20T19:03:43.980Z,44.37
2019-03-20T19:09:38.528Z,43.90
2019-03-20T19:12:24.864Z,45.53
2019-03-20T19:15:05.582Z,45.87
2019-03-20T19:17:44.009Z,44.67
2019-03-20T19:20:27.003Z,46.97
2019-03-20T19:23:14.771Z,49.10
2019-03-20T19:25:55.871Z,47.27
2019-03-20T19:28:34.367Z,49.00
2019-03-20T19:34:16.605Z,45.53
2019-03-20T19:36:54.023Z,48.20
2019-03-20T19:39:31.127Z,47.27
2019-03-20T19:42:19.309Z,47.30
2019-03-20T19:44:47.127Z,46.97
2019-03-20T19:47:22.216Z,46.70
2019-03-20T19:49:58.741Z,47.40
2019-03-20T19:52:35.930Z,48.27
2019-03-20T19:55:12.326Z,49.00
2019-03-20T19:58:05.453Z,48.67
2019-03-20T20:00:39.062Z,48.10
2019-03-20T20:03:15.451Z,49.43
2019-03-20T20:05:54.194Z,47.60
2019-03-20T20:08:30.159Z,47.87
2019-03-20T20:11:04.321Z,51.63
2019-03-20T20:13:42.231Z,51.27
2019-03-20T20:16:16.355Z,52.13
2019-03-20T20:18:49.068Z,52.23
2019-03-20T20:21:17.181Z,49.83
2019-03-20T20:23:45.322Z,50.20
2019-03-20T20:26:13.498Z,51.83
2019-03-20T20:28:41.918Z,50.63
2019-03-20T20:31:10.274Z,50.80
2019-03-20T20:33:38.561Z,51.20
2019-03-20T20:36:06.919Z,51.63
2019-03-20T20:38:36.255Z,52.43
2019-03-20T20:41:04.853Z,49.67
2019-03-20T20:43:33.377Z,50.77
2019-03-20T20:46:01.960Z,51.13
2019-03-20T20:48:30.408Z,50.90
2019-03-20T20:50:58.672Z,52.83
2019-03-20T20:53:27.055Z,51.90
2019-03-20T20:55:55.236Z,52.37
2019-03-20T20:58:24.028Z,53.40
2019-03-20T21:00:52.281Z,50.67
2019-03-20T21:03:20.512Z,53.90
2019-03-20T21:05:49.024Z,49.27
2019-03-20T21:08:17.429Z,51.10
2019-03-20T21:10:45.935Z,49.00
2019-03-20T21:13:14.311Z,49.97
2019-03-20T21:15:43.795Z,49.00
2019-03-20T21:18:34.464Z,50.20
2019-03-20T21:21:03.123Z,48.23
2019-03-20T21:23:39.336Z,45.73
2019-03-20T21:26:08.038Z,45.80
2019-03-20T21:28:58.731Z,43.77
2019-03-20T21:31:32.533Z,44.13
2019-03-20T21:34:23.056Z,44.60
2019-03-20T21:37:24.399Z,43.07
2019-03-20T21:39:53.337Z,43.47
2019-03-20T21:42:40.681Z,46.43
2019-03-20T21:45:33.821Z,45.43
2019-03-20T21:48:03.042Z,47.93
2019-03-20T21:50:44.427Z,48.03
2019-03-20T21:53:14.777Z,49.10
2019-03-20T21:56:00.965Z,48.87
2019-03-20T21:58:41.956Z,49.17
2019-03-20T22:01:42.116Z,48.23
2019-03-20T22:04:10.705Z,48.00
2019-03-20T22:07:01.094Z,49.77
2019-03-20T22:09:57.486Z,46.33
2019-03-20T22:12:31.396Z,47.37
2019-03-20T22:15:05.491Z,46.77
2019-03-20T22:17:52.804Z,46.97
2019-03-20T22:20:40.143Z,48.20
2019-03-20T22:23:18.918Z,48.90
2019-03-20T22:26:09.537Z,48.67
2019-03-20T22:29:11.979Z,47.83
2019-03-20T22:31:42.380Z,49.63
2019-03-20T22:34:28.748Z,49.67
2019-03-20T22:36:57.497Z,48.50
2019-03-20T22:39:43.724Z,48.73
2019-03-20T22:42:30.583Z,49.60
2019-03-20T22:45:08.769Z,48.83
2019-03-20T22:47:56.442Z,49.37
2019-03-20T22:50:31.459Z,50.80
2019-03-20T22:53:19.994Z,49.97
2019-03-20T22:55:55.550Z,50.97
2019-03-20T22:58:43.116Z,52.87
2019-03-20T23:01:36.293Z,52.23
2019-03-20T23:04:07.439Z,50.27
2019-03-20T23:06:36.241Z,49.63
2019-03-20T23:09:08.550Z,50.60
2019-03-20T23:11:44.699Z,52.23
2019-03-20T23:14:13.342Z,52.80
2019-03-20T23:16:42.891Z,54.43
2019-03-20T23:19:11.642Z,57.17
2019-03-20T23:21:40.254Z,57.03
2019-03-20T23:24:08.899Z,56.53
2019-03-20T23:26:37.345Z,56.27
2019-03-20T23:29:06.009Z,58.47
2019-03-20T23:31:34.647Z,59.80
2019-03-20T23:34:06.214Z,60.53
2019-03-20T23:36:34.866Z,58.40
2019-03-20T23:39:02.734Z,60.20
2019-03-20T23:41:31.670Z,60.47
2019-03-20T23:44:00.620Z,62.27
2019-03-20T23:46:29.139Z,63.47
2019-03-20T23:49:02.925Z,65.17
2019-03-20T23:51:31.389Z,66.73
2019-03-20T23:53:59.970Z,65.93
2019-03-20T23:56:29.690Z,63.97
2019-03-20T23:58:58.374Z,67.10
